Flight Track Log - Related Links

Times and Time Zones

All times are in EDT time to prevent confusion due to time zone crossing. See the N988QC flight status page for this flight to view local times or setup timezone preferences in your user account.

Time Position Orientation Groundspeed Altitude Reporting Facility
EDT Latitude Longitude Course Direction KTS MPH feet Rate Location/Type
Tue 10:27:14 AM 43.8892 -92.3797 90° East 254 292 4,300  Level Chicago Center
Tue 10:27:56 AM 43.8911 -92.2956 88° East 289 333 5,100 2,423 Climbing Minneapolis Center
Tue 10:28:58 AM 43.8906 -92.1803 90° East 298 343 8,500 2,390 Climbing Minneapolis Center
Tue 10:29:59 AM 43.8947 -92.0733 87° East 307 353 10,000 2,146 Climbing Minneapolis Center
Tue 10:31:01 AM 43.8694 -91.9244 103° East 339 390 12,900 2,758 Climbing Minneapolis Center
Tue 10:32:00 AM 43.9000 -91.5211 90° East  Level FlightAware Approximate
Tue 10:32:03 AM 43.8456 -91.7933 104° East 351 404 15,700  Level Minneapolis Center
Tue 10:33:05 AM 43.8544 -91.6564 85° East 355 409 18,500 2,226 Climbing Minneapolis Center
Tue 10:34:07 AM 43.8808 -91.5158 75° East 365 420 20,300 1,268 Climbing Minneapolis Center
Tue 10:35:08 AM 43.9069 -91.3703 76° East 376 433 21,100 976 Climbing Minneapolis Center
Tue 10:36:10 AM 43.9306 -91.2131 78° East 398 458 22,300 1,355 Climbing Minneapolis Center
Tue 10:37:12 AM 43.9642 -91.0225 76° East 420 483 23,900 1,324 Climbing Minneapolis Center
Tue 10:38:26 AM 44.0117 -90.8383 70° East 425 489 25,300 1,059 Climbing Minneapolis Center
Tue 10:39:28 AM 44.0833 -90.7033 54° Northeast 435 501 26,300 1,161 Climbing Minneapolis Center
Tue 10:40:30 AM 44.1631 -90.5769 49° Northeast 437 503 27,700 1,317 Climbing Minneapolis Center
Tue 10:41:31 AM 44.2472 -90.4239 52° Northeast 430 495 29,000 927 Climbing Minneapolis Center
Tue 10:42:33 AM 44.2447 -90.2561 91° East 434 499 29,600 581 Climbing Minneapolis Center
Tue 10:43:35 AM 44.2028 -90.0942 110° East 443 510 30,200 677 Climbing Minneapolis Center
Tue 10:44:37 AM 44.1553 -89.9283 112° Southeast 457 526 31,000 361 Climbing Minneapolis Center
Tue 10:45:48 AM 44.0978 -89.7319 112° Southeast 468 539 31,000 135 Level Chicago Center
Tue 10:46:50 AM 44.0478 -89.5550 111° Southeast 487 560 31,300 823 Climbing Chicago Center
Tue 10:47:52 AM 43.9978 -89.3811 112° Southeast 486 559 32,700 1,065 Climbing Chicago Center
Tue 10:48:54 AM 43.9386 -89.1822 112° Southeast 478 550 33,500 629 Climbing Chicago Center
Tue 10:49:56 AM 43.8878 -89.0111 112° Southeast 479 551 34,000 339 Climbing Chicago Center
Tue 10:50:58 AM 43.8467 -88.8303 107° East 490 564 34,200 387 Climbing Chicago Center
Tue 10:52:00 AM 43.8250 -88.6369 99° East 499 574 34,800 387 Climbing Chicago Center
Tue 10:53:02 AM 43.7997 -88.4447 100° East 499 574 35,000 97 Climbing Chicago Center
Tue 10:54:04 AM 43.7744 -88.2475 100° East 513 590 35,000  Level Chicago Center
Tue 10:55:06 AM 43.7486 -88.0536 100° East 509 586 35,000  Level Chicago Center
Tue 10:56:08 AM 43.7189 -87.8314 100° East 503 579 35,000  Level Chicago Center
Tue 10:57:09 AM 43.6936 -87.6439 100° East 496 571 35,000  Level Chicago Center
Tue 10:58:11 AM 43.6672 -87.4569 101° East 494 568 35,000  Level Chicago Center
Tue 10:59:13 AM 43.6403 -87.2689 101° East 492 566 35,000  Level Chicago Center
Tue 11:00:18 AM 43.6147 -87.0856 101° East 489 563 35,000  Level Chicago Center
Tue 11:01:20 AM 43.5892 -86.9011 101° East 490 564 35,000  Level Chicago Center
Tue 11:02:21 AM 43.5622 -86.7169 101° East 490 564 35,000  Level Chicago Center
Tue 11:03:23 AM 43.5306 -86.4961 101° East 490 564 35,000  Level Chicago Center
Tue 11:04:25 AM 43.5039 -86.3119 101° East 490 564 35,000  Level Chicago Center
Tue 11:05:27 AM 43.4767 -86.1267 101° East 491 565 35,000  Level Chicago Center
Tue 11:06:28 AM 43.4494 -85.9422 101° East 490 564 35,000  Level Chicago Center
Tue 11:07:30 AM 43.4203 -85.7564 102° East 493 567 35,000  Level Chicago Center
Tue 11:08:32 AM 43.3925 -85.5725 102° East 488 562 35,000  Level Chicago Center
Tue 11:09:33 AM 43.3633 -85.3897 102° East 488 562 35,000  Level Chicago Center
Tue 11:10:35 AM 43.3350 -85.2078 102° East 485 558 35,000  Level Chicago Center
Tue 11:11:37 AM 43.3064 -85.0286 102° East 481 554 35,000  Level Chicago Center
Tue 11:12:39 AM 43.2714 -84.8133 103° East 480 552 35,000  Level Chicago Center
Tue 11:13:40 AM 43.2425 -84.6336 102° East 483 556 35,000  Level Chicago Center
Tue 11:14:42 AM 43.2125 -84.4536 103° East 485 558 35,000  Level Chicago Center
Tue 11:15:24 AM 43.1875 -84.3219 105° East 477 549 35,000  Level Cleveland Center
Tue 11:16:24 AM 43.1578 -84.1408 103° East 477 549 35,000  Level Cleveland Center
Tue 11:17:24 AM 43.1278 -83.9600 103° East 477 549 35,000  Level Cleveland Center
Tue 11:18:24 AM 43.0975 -83.7792 103° East 482 555 35,000  Level Cleveland Center
Tue 11:19:24 AM 43.0647 -83.5983 104° East 482 555 35,000  Level Cleveland Center
Tue 11:20:24 AM 43.0339 -83.4208 103° East 482 555 35,000  Level Cleveland Center
Tue 11:21:24 AM 43.0006 -83.2431 104° East 477 549 35,000  Level Cleveland Center
Tue 11:22:24 AM 42.9692 -83.0603 103° East 482 555 35,000  Level Cleveland Center
Tue 11:23:24 AM 42.9433 -82.9033 103° East 477 549 35,000  Level Cleveland Center
Tue 11:24:24 AM 42.9092 -82.7289 105° East 477 549 35,000  Level Cleveland Center
Tue 11:25:24 AM 42.8769 -82.5522 104° East 477 549 35,000  Level Cleveland Center
Tue 11:26:24 AM 42.8444 -82.3756 104° East 477 549 35,000  Level Cleveland Center
Tue 11:27:24 AM 42.8136 -82.1992 103° East 477 549 35,000  Level Cleveland Center
Tue 11:28:24 AM 42.7783 -82.0231 105° East 477 549 35,000  Level Cleveland Center
Tue 11:29:24 AM 42.7450 -81.8469 104° East 477 549 35,000  Level Cleveland Center
Tue 11:30:24 AM 42.7094 -81.6542 104° East 484 557 35,000  Level Cleveland Center
Tue 11:31:24 AM 42.6756 -81.4811 105° East 479 551 35,000  Level Cleveland Center
Tue 11:32:24 AM 42.6392 -81.3058 106° East 479 551 35,000  Level Cleveland Center
Tue 11:33:24 AM 42.6069 -81.1333 104° East 471 542 35,000  Level Cleveland Center
Tue 11:34:24 AM 42.5722 -80.9608 105° East 478 550 35,000  Level Cleveland Center
Tue 11:35:24 AM 42.5372 -80.7833 105° East 478 550 35,000  Level Cleveland Center
Tue 11:36:24 AM 42.5039 -80.6114 105° East 478 550 35,000  Level Cleveland Center
Tue 11:37:24 AM 42.4706 -80.4564 106° East 470 541 35,000  Level Cleveland Center
Tue 11:38:24 AM 42.4347 -80.2850 106° East 470 541 35,000  Level Cleveland Center
Tue 11:39:24 AM 42.3967 -80.1081 106° East 475 547 35,000  Level Cleveland Center
Tue 11:40:24 AM 42.3583 -79.9172 105° East 475 547 35,000  Level Cleveland Center
Tue 11:41:24 AM 42.3239 -79.7464 105° East 475 547 35,000  Level Cleveland Center
Tue 11:42:24 AM 42.2869 -79.5728 106° East 470 541 35,000  Level Cleveland Center
Tue 11:43:24 AM 42.2500 -79.4022 106° East 470 541 35,000  Level Cleveland Center
Tue 11:44:24 AM 42.2125 -79.2319 107° East 470 541 35,000  Level Cleveland Center
Tue 11:45:24 AM 42.1731 -79.0619 107° East 470 541 35,000  Level Cleveland Center
Tue 11:46:24 AM 42.1311 -78.8950 109° East 475 547 35,000  Level Cleveland Center
Tue 11:47:24 AM 42.0867 -78.7281 110° East 475 547 35,000  Level Cleveland Center
Tue 11:48:24 AM 42.0464 -78.5561 107° East 475 547 35,000  Level Cleveland Center
Tue 11:50:26 AM 41.9500 -78.2000 110° East 480 552 35,000  Level Toronto Center
Tue 11:51:26 AM 41.9000 -78.0167 110° East 480 552 35,000  Level Toronto Center
Tue 11:52:26 AM 41.8667 -77.8667 107° East 480 552 35,000  Level Toronto Center
Tue 11:53:26 AM 41.8167 -77.7167 114° Southeast 480 552 35,000  Level Toronto Center
Tue 11:54:53 AM 41.7703 -77.4986 106° East 477 549 35,000  Level New York Center
Tue 11:55:52 AM 41.7275 -77.3331 109° East 477 549 35,000  Level New York Center
Tue 11:56:52 AM 41.6844 -77.1706 109° East 472 543 35,000 -492 Level New York Center
Tue 11:57:54 AM 41.6389 -77.0050 110° East 472 543 34,000 -1,800 Descending New York Center
Tue 11:58:52 AM 41.5936 -76.8344 109° East 477 549 31,400 -2,205 Descending New York Center
Tue 11:59:51 AM 41.5425 -76.6497 110° East 482 555 29,700 -1,700 Descending New York Center
Tue 12:00:52 PM 41.4947 -76.4792 110° East 482 555 28,000 -1,736 Descending New York Center
Tue 12:01:52 PM 41.4486 -76.3064 110° East 482 555 26,200 -2,033 Descending New York Center
Tue 12:02:53 PM 41.3983 -76.1336 111° Southeast 489 563 23,900 -2,115 Descending New York Center
Tue 12:03:54 PM 41.3603 -76.0033 111° Southeast 489 563 21,900 -2,118 Descending New York Center
Tue 12:04:52 PM 41.3117 -75.8256 110° East 471 542 19,700 -1,932 Descending New York Center
Tue 12:05:52 PM 41.2697 -75.6844 112° Southeast 460 529 18,100 -793 Descending New York Center
Tue 12:06:53 PM 41.2181 -75.5261 113° Southeast 433 498 18,100 -1,587 Level New York Center
Tue 12:07:53 PM 41.1714 -75.3850 114° Southeast 397 457 14,900 -3,322 Descending New York Center
Tue 12:08:54 PM 41.1303 -75.2639 114° Southeast 367 422 11,400 -2,521 Descending New York Center
Tue 12:09:52 PM 41.0947 -75.1569 114° Southeast 339 390 9,900 -2,168 Descending New York Center
Tue 12:10:53 PM 41.0667 -75.0725 114° Southeast 289 333 7,100 -1,950 Descending New York Center
Tue 12:11:52 PM 41.0308 -74.9631 113° Southeast 283 326 6,000 -655 Descending New York Center
Tue 12:12:52 PM 41.0222 -74.8578 96° East 283 326 5,800 -843 Descending New York Center
Tue 12:13:53 PM 41.0250 -74.7700 88° East 273 314 4,300 -893 Descending New York Center
Tue 12:14:53 PM 41.0267 -74.6575 89° East 273 314 4,000 -250 Descending New York Center
Tue 12:15:53 PM 41.0317 -74.5697 86° East 268 308 3,800 -508 Descending New York Center
Tue 12:16:51 PM 41.0225 -74.4703 97° East 256 295 3,000 -407 Descending New York Center
Tue 12:17:51 PM 41.0039 -74.3922 108° East 245 282 3,000 -443 Level New York Center
Tue 12:18:53 PM 40.9819 -74.2975 107° East 245 282 2,100 -488 Descending New York Center
Tue 12:19:54 PM 40.9694 -74.2200 102° East 245 282 2,000 -51 Descending New York Center
Tue 12:20:51 PM 40.9489 -74.1392 109° East 240 276 2,000 -102 Level New York Center
Tue 12:21:52 PM 40.9178 -74.0664 119° Southeast 214 246 1,800 -689 Descending New York Center
Tue 12:22:53 PM 40.8803 -74.0617 175° South 154 177 600 -807 Descending New York Center
Tue 12:23:51 PM 40.8431 -74.0517 169° South 143 165 200 -414 Descending New York Center
Tue 12:25:00 PM 40.8500 -74.0500 North  Level FlightAware Approximate
Tue 12:32:00 PM 40.8501 -74.0608 North  Level Estimated

Login

Don't have an account? Register now (free) for customized features, flight alerts, and more!